Tillamook, Oregon
Current Conditions -  °F | °C
As of 5:35 AM on Friday 28 Nov 2014 (Local Time) from KTMK Reporting Station
Drizzle Drizzle  
Wind Chill: 55°   Ceiling: 600
Heat Index: 55°   Visibility: 4mi
Dew Point: 54°   Wind: 0mph
Humidity: 94%   Direction: NA
Pressure: 29.68"   Gusts: NA
Location:  45.46°N, 123.84°W
Report Text: KTMK 281335Z AUTO 00000KT 4SM DZ BKN006 OVC012 13/12 A2968 RMK AO2 P0004
Loading
Personal Weather Stations






























Interactive Weather Map New forecast layout! Learn more

10-Day Weather Forecast

Advertisements
Track Severe Weather on mobile